Time;durP1;ratioP1;P1;durP2;ratioP2;P2;SDS_P1;SDS_P2;PMS_P1;PMS_P2;Temp;Humidity;BMP_temperature;BMP_pressure;BME280_temperature;BME280_humidity;BME280_pressure;Samples;Min_cycle;Max_cycle;Signal;HPM_P1;HPM_P2
2021/03/27 00:00:21;;;;;;;0.23;0.23;;;9.30;99.90;;;;;;4993129;28;20199;-83
2021/03/27 00:02:52;;;;;;;0.10;0.10;;;9.30;99.90;;;;;;4993531;28;20218;-84
2021/03/27 00:05:29;;;;;;;0.10;0.10;;;9.30;99.90;;;;;;5010702;28;20187;-83
2021/03/27 00:08:06;;;;;;;0.10;0.10;;;9.20;99.90;;;;;;5011157;28;20177;-84
2021/03/27 00:11:16;;;;;;;0.20;0.20;;;9.00;99.90;;;;;;4993112;28;20226;-83
2021/03/27 00:14:00;;;;;;;1.03;0.40;;;9.00;99.90;;;;;;4924270;29;20193;-83
2021/03/27 00:16:46;;;;;;;0.30;0.30;;;8.90;99.90;;;;;;5002082;28;20533;-84
2021/03/27 00:19:30;;;;;;;0.00;0.00;;;8.90;99.90;;;;;;4993044;28;20199;-83
2021/03/27 00:22:00;;;;;;;0.10;0.10;;;8.90;99.90;;;;;;5010868;28;20206;-83
2021/03/27 00:24:56;;;;;;;0.10;0.10;;;9.00;99.90;;;;;;5026324;28;20182;-83
2021/03/27 00:27:27;;;;;;;0.20;0.20;;;9.20;99.90;;;;;;4993226;28;20220;-82
2021/03/27 00:29:57;;;;;;;0.20;0.20;;;9.40;99.90;;;;;;4993256;28;20225;-84
2021/03/27 00:32:35;;;;;;;0.30;0.30;;;9.30;99.90;;;;;;5009234;28;20289;-83
2021/03/27 00:35:07;;;;;;;0.20;0.20;;;9.50;99.90;;;;;;4993380;28;20756;-84
2021/03/27 00:37:33;;;;;;;3.20;0.43;;;9.60;99.90;;;;;;5025959;28;20414;-84
2021/03/27 00:40:13;;;;;;;0.37;0.37;;;9.50;99.90;;;;;;4995802;28;20219;-82
2021/03/27 00:42:56;;;;;;;0.10;0.10;;;9.60;99.90;;;;;;5023560;28;20194;-83
2021/03/27 00:45:26;;;;;;;0.13;0.13;;;9.60;99.90;;;;;;4996993;28;20268;-83
2021/03/27 00:47:56;;;;;;;2.00;1.90;;;9.80;99.90;;;;;;4997085;28;20182;-83
2021/03/27 00:50:35;;;;;;;0.30;0.23;;;9.80;99.90;;;;;;4996375;28;20272;-83
2021/03/27 00:53:12;;;;;;;0.10;0.10;;;10.00;99.90;;;;;;4996451;28;20282;-83
2021/03/27 00:56:09;;;;;;;0.27;0.27;;;10.10;99.90;;;;;;4996688;28;20191;-84
2021/03/27 00:58:43;;;;;;;0.10;0.10;;;10.00;99.90;;;;;;4996325;28;20829;-83
2021/03/27 01:01:11;;;;;;;2.27;0.43;;;10.00;99.90;;;;;;5027592;28;20183;-84
2021/03/27 01:03:46;;;;;;;0.30;0.30;;;9.90;99.90;;;;;;4996797;28;20230;-84
2021/03/27 01:06:19;;;;;;;0.17;0.17;;;9.90;99.90;;;;;;5014344;28;20210;-83
2021/03/27 01:08:48;;;;;;;0.40;0.40;;;10.00;99.90;;;;;;4996273;28;20206;-83
2021/03/27 01:11:38;;;;;;;0.20;0.20;;;10.10;99.90;;;;;;5013073;28;20684;-84
2021/03/27 01:14:08;;;;;;;0.03;0.03;;;10.30;99.90;;;;;;4996558;28;20187;-83
2021/03/27 01:16:38;;;;;;;0.20;0.20;;;10.40;99.90;;;;;;5029685;28;20202;-83
2021/03/27 01:19:14;;;;;;;0.20;0.20;;;10.30;99.90;;;;;;5028387;28;20207;-83
2021/03/27 01:21:42;;;;;;;0.77;0.60;;;10.40;99.90;;;;;;5012602;28;20713;-83
2021/03/27 01:24:12;;;;;;;0.30;0.30;;;10.50;99.90;;;;;;4996020;28;20186;-81
2021/03/27 01:26:52;;;;;;;0.20;0.20;;;10.50;99.90;;;;;;5028941;28;20651;-83
2021/03/27 01:29:33;;;;;;;0.23;0.23;;;10.70;99.90;;;;;;5001242;28;20219;-82
2021/03/27 01:32:15;;;;;;;0.77;0.53;;;10.80;99.90;;;;;;5013457;28;20191;-81
2021/03/27 01:34:42;;;;;;;0.63;0.20;;;10.80;99.90;;;;;;4995826;28;20187;-81
2021/03/27 01:37:26;;;;;;;0.77;0.47;;;10.80;99.90;;;;;;5014382;28;20194;-79
2021/03/27 01:40:12;;;;;;;0.13;0.13;;;10.90;99.90;;;;;;5012650;28;20253;-81
2021/03/27 01:42:37;;;;;;;0.20;0.20;;;10.90;99.90;;;;;;4996915;28;20202;-81
2021/03/27 01:45:24;;;;;;;0.30;0.30;;;10.80;99.90;;;;;;5012149;28;20274;-81
2021/03/27 01:47:56;;;;;;;0.57;0.57;;;10.80;99.90;;;;;;5028202;28;20179;-81
2021/03/27 01:50:39;;;;;;;0.10;0.10;;;10.80;99.90;;;;;;4995388;28;20202;-81
2021/03/27 01:53:07;;;;;;;0.20;0.20;;;10.70;99.90;;;;;;4995690;28;20187;-80
2021/03/27 01:55:54;;;;;;;0.77;0.30;;;10.50;99.90;;;;;;4995497;28;20725;-80
2021/03/27 01:58:20;;;;;;;0.43;0.40;;;10.40;99.90;;;;;;5012782;28;20210;-80
2021/03/27 02:01:05;;;;;;;0.20;0.20;;;10.10;99.90;;;;;;4995184;28;20202;-81
2021/03/27 02:03:45;;;;;;;0.20;0.20;;;10.10;99.90;;;;;;5002326;28;20211;-80
2021/03/27 02:06:17;;;;;;;0.97;0.97;;;10.00;99.90;;;;;;5011552;28;20278;-80
2021/03/27 02:09:09;;;;;;;0.10;0.10;;;10.00;99.90;;;;;;5012836;28;20265;-80
2021/03/27 02:11:59;;;;;;;0.10;0.10;;;9.90;99.90;;;;;;5011827;28;20236;-80
2021/03/27 02:14:46;;;;;;;0.20;0.20;;;10.00;99.90;;;;;;5012645;28;20202;-81
2021/03/27 02:17:28;;;;;;;0.33;0.27;;;10.20;99.90;;;;;;5007623;28;20240;-81
2021/03/27 02:20:18;;;;;;;0.27;0.27;;;10.20;99.90;;;;;;5012965;28;20187;-79
2021/03/27 02:22:59;;;;;;;0.10;0.10;;;10.20;99.90;;;;;;4999325;28;20262;-81
2021/03/27 02:25:34;;;;;;;0.53;0.53;;;10.10;99.90;;;;;;4995161;28;20274;-81
2021/03/27 02:28:18;;;;;;;0.73;0.73;;;10.10;99.90;;;;;;5012279;28;20210;-81
2021/03/27 02:31:21;;;;;;;0.50;0.50;;;10.10;99.90;;;;;;5000796;28;20706;-81
2021/03/27 02:33:53;;;;;;;0.20;0.20;;;10.10;99.90;;;;;;5010808;28;20216;-79
2021/03/27 02:36:25;;;;;;;0.60;0.60;;;10.00;99.90;;;;;;5004868;28;20191;-80
2021/03/27 02:38:54;;;;;;;0.20;0.20;;;10.00;99.90;;;;;;5010718;28;20210;-81
2021/03/27 02:44:49;;;;;;;0.87;0.40;;;9.90;99.90;;;;;;5006030;28;20244;-78
2021/03/27 02:47:29;;;;;;;0.97;0.63;;;9.80;99.90;;;;;;4987495;28;20174;-81
2021/03/27 02:50:04;;;;;;;0.60;0.43;;;9.80;99.90;;;;;;5025118;28;20737;-79
2021/03/27 02:52:55;;;;;;;0.10;0.10;;;9.80;99.90;;;;;;5011367;28;20236;-81
2021/03/27 02:55:28;;;;;;;0.10;0.10;;;9.80;99.90;;;;;;5005709;28;20272;-81
2021/03/27 02:58:18;;;;;;;0.00;0.00;;;9.90;99.90;;;;;;4994215;28;20261;-81
2021/03/27 03:01:19;;;;;;;0.13;0.13;;;9.90;99.90;;;;;;4993367;28;20606;-81
2021/03/27 03:04:14;;;;;;;0.33;0.33;;;10.00;99.90;;;;;;5012060;28;20347;-80
2021/03/27 03:07:01;;;;;;;0.00;0.00;;;10.10;99.90;;;;;;5016137;28;20186;-81
2021/03/27 03:09:47;;;;;;;0.00;0.00;;;10.20;99.90;;;;;;4993506;28;20234;-81
2021/03/27 03:12:19;;;;;;;0.10;0.10;;;10.10;99.90;;;;;;4994132;28;20686;-80
2021/03/27 03:15:17;;;;;;;0.20;0.20;;;10.00;99.90;;;;;;4993423;28;20596;-81
2021/03/27 03:17:59;;;;;;;0.10;0.10;;;9.90;99.90;;;;;;4992900;28;20226;-80
2021/03/27 03:20:53;;;;;;;0.20;0.20;;;9.80;99.90;;;;;;4993822;28;20686;-79
2021/03/27 03:23:28;;;;;;;0.10;0.10;;;9.70;99.90;;;;;;5010928;28;20323;-80
2021/03/27 03:26:24;;;;;;;0.37;0.10;;;9.50;99.90;;;;;;4993846;28;20175;-80
2021/03/27 03:29:01;;;;;;;0.00;0.00;;;9.40;99.90;;;;;;5009589;28;20199;-81
2021/03/27 03:31:55;;;;;;;0.10;0.10;;;9.20;99.90;;;;;;4993764;28;20194;-81
2021/03/27 03:34:49;;;;;;;0.10;0.10;;;9.00;99.90;;;;;;4983315;28;20190;-81
2021/03/27 03:37:22;;;;;;;0.00;0.00;;;8.90;99.90;;;;;;5013192;28;20209;-80
2021/03/27 03:40:11;;;;;;;0.00;0.00;;;8.90;99.90;;;;;;4993732;28;20207;-80
2021/03/27 03:43:11;;;;;;;0.10;0.10;;;8.80;99.90;;;;;;4994936;28;20227;-81
2021/03/27 03:46:08;;;;;;;0.10;0.10;;;8.80;99.90;;;;;;4994680;28;20248;-80
2021/03/27 03:48:47;;;;;;;0.10;0.10;;;8.70;99.90;;;;;;5009369;28;20189;-80
2021/03/27 03:51:46;;;;;;;0.00;0.00;;;8.60;99.90;;;;;;4993434;28;20184;-80
2021/03/27 03:54:26;;;;;;;0.10;0.10;;;8.70;99.90;;;;;;4993487;28;20184;-80
2021/03/27 03:57:09;;;;;;;0.10;0.10;;;8.70;99.90;;;;;;5024911;28;20187;-78
2021/03/27 03:59:53;;;;;;;0.00;0.00;;;8.70;99.90;;;;;;4993374;28;20595;-80
2021/03/27 04:02:28;;;;;;;0.00;0.00;;;8.70;99.90;;;;;;5011036;28;20251;-80
2021/03/27 04:05:15;;;;;;;0.00;0.00;;;8.60;99.90;;;;;;5013786;28;20179;-81
2021/03/27 04:07:45;;;;;;;0.10;0.10;;;8.60;99.90;;;;;;4993018;28;20183;-80
2021/03/27 04:10:19;;;;;;;0.33;0.33;;;8.50;99.90;;;;;;4993457;28;20208;-81
2021/03/27 04:12:54;;;;;;;0.17;0.17;;;8.50;99.90;;;;;;5009933;28;20190;-81
2021/03/27 04:15:22;;;;;;;0.00;0.00;;;8.50;99.90;;;;;;5014702;28;20268;-80
2021/03/27 04:18:13;;;;;;;0.10;0.10;;;8.40;99.90;;;;;;5019665;28;20220;-83
2021/03/27 04:21:03;;;;;;;0.00;0.00;;;8.30;99.90;;;;;;5015148;28;20687;-83
2021/03/27 04:23:47;;;;;;;0.00;0.00;;;8.20;99.90;;;;;;4997365;28;20248;-81
2021/03/27 04:26:37;;;;;;;0.10;0.10;;;8.00;99.90;;;;;;4987113;28;20642;-81
2021/03/27 04:29:27;;;;;;;0.10;0.10;;;7.90;99.90;;;;;;4996984;28;20303;-81
2021/03/27 04:32:15;;;;;;;0.00;0.00;;;7.80;99.90;;;;;;4996822;28;20549;-80
2021/03/27 04:34:57;;;;;;;0.00;0.00;;;7.70;99.90;;;;;;5014641;28;20180;-80
2021/03/27 04:37:35;;;;;;;0.30;0.30;;;7.70;99.90;;;;;;5014882;28;20309;-81
2021/03/27 04:40:11;;;;;;;0.00;0.00;;;7.60;99.90;;;;;;5010889;28;20693;-81
2021/03/27 04:43:00;;;;;;;0.03;0.03;;;7.50;99.90;;;;;;4996927;28;20302;-80
2021/03/27 04:45:31;;;;;;;0.00;0.00;;;7.40;99.90;;;;;;4987436;28;20256;-81
2021/03/27 04:48:15;;;;;;;0.00;0.00;;;7.40;99.90;;;;;;4992812;28;20172;-83
2021/03/27 04:50:50;;;;;;;0.07;0.07;;;7.30;99.90;;;;;;4998103;28;20205;-85
2021/03/27 04:53:30;;;;;;;6.53;0.43;;;7.30;99.90;;;;;;5011939;28;20583;-85
2021/03/27 04:56:24;;;;;;;0.00;0.00;;;7.30;99.90;;;;;;5007859;28;20656;-85
2021/03/27 04:59:27;;;;;;;0.40;0.40;;;7.30;99.90;;;;;;5005891;28;20245;-89
2021/03/27 05:01:55;;;;;;;0.10;0.10;;;7.20;99.90;;;;;;5016162;28;20185;-87
2021/03/27 05:04:39;;;;;;;0.00;0.00;;;7.20;99.90;;;;;;4997794;28;20182;-84
2021/03/27 05:07:12;;;;;;;0.00;0.00;;;7.20;99.90;;;;;;5017971;28;20198;-86
2021/03/27 05:09:48;;;;;;;0.30;0.30;;;7.10;99.90;;;;;;5015486;28;20707;-83
2021/03/27 05:12:25;;;;;;;0.00;0.00;;;7.10;99.90;;;;;;5014750;28;20311;-83
2021/03/27 05:15:03;;;;;;;0.10;0.10;;;7.00;99.90;;;;;;5013414;28;20226;-84
2021/03/27 05:18:19;;;;;;;0.10;0.10;;;7.00;99.90;;;;;;4997273;28;20189;-84
2021/03/27 05:20:51;;;;;;;0.10;0.10;;;6.90;99.90;;;;;;5030445;28;20622;-84
2021/03/27 05:23:19;;;;;;;0.00;0.00;;;6.90;99.90;;;;;;5014622;28;20662;-86
2021/03/27 05:25:45;;;;;;;0.10;0.10;;;6.90;99.90;;;;;;5013370;28;20550;-84
2021/03/27 05:28:33;;;;;;;0.00;0.00;;;6.90;99.90;;;;;;4993681;28;20187;-86
2021/03/27 05:31:17;;;;;;;0.10;0.10;;;7.00;99.90;;;;;;5005838;28;20218;-85
2021/03/27 05:34:02;;;;;;;0.00;0.00;;;7.00;99.90;;;;;;4990947;28;20185;-88
2021/03/27 05:36:59;;;;;;;0.00;0.00;;;7.10;99.90;;;;;;4999568;28;20184;-84
2021/03/27 05:39:47;;;;;;;0.10;0.10;;;7.10;99.90;;;;;;4995755;28;20211;-86
2021/03/27 05:42:39;;;;;;;0.07;0.07;;;7.20;99.90;;;;;;4994892;28;20203;-86
2021/03/27 05:45:29;;;;;;;2.13;0.40;;;7.30;99.90;;;;;;5005867;28;20245;-85
2021/03/27 05:48:31;;;;;;;0.00;0.00;;;7.30;99.90;;;;;;5027037;28;20191;-84
2021/03/27 05:51:33;;;;;;;0.00;0.00;;;7.20;99.90;;;;;;5026361;28;20214;-83
2021/03/27 05:54:20;;;;;;;0.00;0.00;;;7.10;99.90;;;;;;5040109;28;20181;-84
2021/03/27 05:56:58;;;;;;;0.00;0.00;;;7.10;99.90;;;;;;4985984;28;20191;-84
2021/03/27 06:00:06;;;;;;;0.10;0.10;;;7.00;99.90;;;;;;5022617;28;20632;-83
2021/03/27 06:02:59;;;;;;;0.10;0.10;;;7.00;99.90;;;;;;5024276;28;20244;-84
2021/03/27 06:05:59;;;;;;;0.10;0.10;;;7.20;99.90;;;;;;5001581;28;20589;-84
2021/03/27 06:08:37;;;;;;;0.20;0.20;;;7.30;99.90;;;;;;4987091;28;20279;-85
2021/03/27 06:11:34;;;;;;;0.10;0.10;;;7.50;99.90;;;;;;5016786;28;20188;-84
2021/03/27 06:14:22;;;;;;;0.00;0.00;;;7.60;99.90;;;;;;5009696;28;20188;-84
2021/03/27 06:17:19;;;;;;;0.10;0.10;;;7.50;99.90;;;;;;5019465;28;20273;-86
2021/03/27 06:20:03;;;;;;;0.10;0.10;;;7.50;99.90;;;;;;5003618;28;20250;-87
2021/03/27 06:22:41;;;;;;;0.17;0.17;;;7.50;99.90;;;;;;4996210;28;20296;-87
2021/03/27 06:25:34;;;;;;;0.10;0.10;;;7.60;99.90;;;;;;4995585;28;20198;-86
2021/03/27 06:28:21;;;;;;;1.30;0.20;;;7.60;99.90;;;;;;4996120;28;20241;-84
2021/03/27 06:31:05;;;;;;;0.10;0.10;;;7.60;99.90;;;;;;5014639;28;20218;-83
2021/03/27 06:34:04;;;;;;;0.10;0.10;;;7.60;99.90;;;;;;5023105;28;20179;-82
2021/03/27 06:36:57;;;;;;;0.00;0.00;;;7.60;99.90;;;;;;5012645;28;20179;-84
2021/03/27 06:39:44;;;;;;;0.10;0.10;;;7.60;99.90;;;;;;5004208;28;20306;-83
2021/03/27 06:42:28;;;;;;;0.00;0.00;;;7.70;99.90;;;;;;5006857;28;20285;-86
2021/03/27 06:45:12;;;;;;;0.10;0.10;;;7.80;99.90;;;;;;5011316;28;21191;-86
2021/03/27 06:47:56;;;;;;;0.00;0.00;;;7.80;99.90;;;;;;5013392;28;20794;-82
2021/03/27 06:50:33;;;;;;;0.03;0.03;;;7.90;99.90;;;;;;5014378;28;20199;-85
2021/03/27 06:53:19;;;;;;;0.00;0.00;;;8.10;99.90;;;;;;4994358;28;20180;-83
2021/03/27 06:56:07;;;;;;;0.00;0.00;;;8.20;99.90;;;;;;5008090;28;20188;-83
2021/03/27 06:58:41;;;;;;;0.20;0.10;;;8.20;99.90;;;;;;4989214;28;20576;-83
2021/03/27 07:04:28;;;;;;;0.10;0.10;;;8.40;99.90;;;;;;5013002;28;20196;-82
2021/03/27 07:07:31;;;;;;;0.10;0.10;;;8.40;99.90;;;;;;5011219;28;20253;-84
2021/03/27 07:10:09;;;;;;;0.00;0.00;;;8.50;99.90;;;;;;5006012;28;20216;-84
2021/03/27 07:12:53;;;;;;;2.37;0.47;;;8.60;99.90;;;;;;5013187;28;20191;-82
2021/03/27 07:15:53;;;;;;;0.03;0.03;;;8.70;99.90;;;;;;4989626;28;20181;-83
2021/03/27 07:18:40;;;;;;;0.00;0.00;;;8.90;99.90;;;;;;4994764;28;20184;-83
2021/03/27 07:21:34;;;;;;;0.00;0.00;;;9.00;99.90;;;;;;5011120;28;20560;-83
2021/03/27 07:24:26;;;;;;;0.00;0.00;;;9.10;99.90;;;;;;4990646;28;20692;-84
2021/03/27 07:27:10;;;;;;;0.10;0.10;;;9.00;99.90;;;;;;5011037;28;20203;-84
2021/03/27 07:29:49;;;;;;;0.10;0.10;;;9.00;99.90;;;;;;5011073;28;20219;-84
2021/03/27 07:32:23;;;;;;;0.10;0.10;;;9.00;99.90;;;;;;5009824;28;20184;-84
2021/03/27 07:35:03;;;;;;;4.93;0.30;;;9.00;99.90;;;;;;5012386;28;20175;-84
2021/03/27 07:38:08;;;;;;;0.23;0.23;;;9.10;99.90;;;;;;5014481;28;20202;-83
2021/03/27 07:40:45;;;;;;;0.00;0.00;;;9.10;99.90;;;;;;4994595;28;20212;-84
2021/03/27 07:43:26;;;;;;;0.03;0.03;;;9.30;99.90;;;;;;4994291;28;20299;-84
2021/03/27 07:46:00;;;;;;;0.00;0.00;;;9.40;99.90;;;;;;4994329;28;20274;-84
2021/03/27 07:48:48;;;;;;;0.00;0.00;;;9.60;99.90;;;;;;5003415;28;20271;-85
2021/03/27 07:51:45;;;;;;;0.10;0.10;;;9.60;99.90;;;;;;4994826;28;20209;-83
2021/03/27 07:54:17;;;;;;;0.00;0.00;;;9.70;99.90;;;;;;4991823;28;20188;-83
2021/03/27 07:57:10;;;;;;;0.10;0.10;;;9.60;99.90;;;;;;5010157;28;20196;-84
2021/03/27 08:00:08;;;;;;;0.10;0.10;;;9.90;99.90;;;;;;4995261;28;20685;-85
2021/03/27 08:02:43;;;;;;;0.00;0.00;;;9.90;99.90;;;;;;4994085;28;20294;-84
2021/03/27 08:05:48;;;;;;;0.00;0.00;;;10.20;99.90;;;;;;4994325;28;20188;-85
2021/03/27 08:08:16;;;;;;;0.00;0.00;;;10.10;99.90;;;;;;5007932;28;20185;-86
2021/03/27 08:11:21;;;;;;;1.70;0.20;;;10.20;99.90;;;;;;5019256;28;20203;-87
2021/03/27 08:14:12;;;;;;;0.20;0.20;;;10.30;99.90;;;;;;5020945;28;20198;-89
2021/03/27 08:16:55;;;;;;;0.40;0.40;;;10.50;99.90;;;;;;5011486;28;20297;-84
2021/03/27 08:19:39;;;;;;;0.17;0.17;;;10.40;99.90;;;;;;4994375;28;20579;-84
2021/03/27 08:22:43;;;;;;;0.00;0.00;;;10.30;99.90;;;;;;4997476;28;20208;-84
2021/03/27 08:25:37;;;;;;;0.33;0.30;;;10.20;99.90;;;;;;5011315;28;20837;-84
2021/03/27 08:31:44;;;;;;;0.10;0.10;;;10.40;99.90;;;;;;5011377;28;20209;-84
2021/03/27 08:34:48;;;;;;;0.43;0.20;;;10.90;99.90;;;;;;5018314;28;20711;-84
2021/03/27 08:37:17;;;;;;;5.20;0.10;;;10.90;99.90;;;;;;5009460;28;20183;-85
2021/03/27 08:39:56;;;;;;;0.13;0.13;;;11.10;99.90;;;;;;5020952;28;20205;-84
2021/03/27 08:43:03;;;;;;;0.43;0.43;;;11.20;99.90;;;;;;4993692;28;20226;-85
2021/03/27 08:45:48;;;;;;;2.63;1.10;;;11.50;99.90;;;;;;5001305;28;20174;-84
2021/03/27 08:48:25;;;;;;;0.10;0.10;;;11.80;99.90;;;;;;5007075;28;20186;-85
2021/03/27 08:51:10;;;;;;;0.00;0.00;;;11.70;99.90;;;;;;4992595;28;20202;-85
2021/03/27 08:53:50;;;;;;;0.10;0.10;;;11.50;99.90;;;;;;5006767;28;20218;-86
2021/03/27 08:56:44;;;;;;;0.00;0.00;;;11.10;99.90;;;;;;5007837;28;20186;-85
2021/03/27 08:59:34;;;;;;;1.33;0.30;;;10.70;99.90;;;;;;5006842;28;20198;-86
2021/03/27 09:02:02;;;;;;;0.00;0.00;;;10.70;99.90;;;;;;4993676;28;20226;-85
2021/03/27 09:04:48;;;;;;;0.23;0.10;;;10.80;99.90;;;;;;5008733;28;20184;-85
2021/03/27 09:07:25;;;;;;;0.10;0.10;;;10.70;99.90;;;;;;5013772;28;20255;-85
2021/03/27 09:10:35;;;;;;;0.10;0.10;;;10.60;99.90;;;;;;4997479;28;20235;-84
2021/03/27 09:13:42;;;;;;;0.07;0.07;;;10.70;99.90;;;;;;5029438;28;20201;-85
2021/03/27 09:16:47;;;;;;;0.37;0.37;;;10.70;99.90;;;;;;4995771;28;20244;-85
2021/03/27 09:23:17;;;;;;;0.10;0.10;;;11.20;99.90;;;;;;5012497;28;20218;-85
2021/03/27 09:26:14;;;;;;;0.10;0.10;;;11.10;99.90;;;;;;4978002;28;20670;-86
2021/03/27 09:29:17;;;;;;;0.03;0.03;;;10.70;99.90;;;;;;5027426;28;20183;-83
2021/03/27 09:32:19;;;;;;;1.83;0.87;;;10.90;99.90;;;;;;4983360;28;20192;-84
2021/03/27 09:35:00;;;;;;;0.40;0.17;;;10.90;99.90;;;;;;5017615;28;20181;-83
2021/03/27 09:37:30;;;;;;;0.10;0.10;;;10.90;99.90;;;;;;5025668;28;20193;-84
2021/03/27 09:40:16;;;;;;;0.00;0.00;;;10.70;99.90;;;;;;4999367;28;20198;-84
2021/03/27 09:43:17;;;;;;;0.00;0.00;;;10.80;99.90;;;;;;5006635;28;20240;-83
2021/03/27 09:46:02;;;;;;;0.10;0.10;;;10.70;99.90;;;;;;5018443;28;20183;-81
2021/03/27 09:49:13;;;;;;;0.40;0.40;;;10.60;99.90;;;;;;5025913;28;20263;-82
2021/03/27 09:52:01;;;;;;;0.30;0.30;;;10.70;99.90;;;;;;4971330;28;20193;-82
2021/03/27 09:54:49;;;;;;;0.00;0.00;;;10.40;99.90;;;;;;4956964;28;20179;-82
2021/03/27 09:57:31;;;;;;;0.10;0.10;;;10.40;99.90;;;;;;4988750;28;20192;-83
2021/03/27 10:00:14;;;;;;;0.10;0.10;;;10.20;99.90;;;;;;4987890;28;20257;-83
2021/03/27 10:02:44;;;;;;;0.20;0.20;;;10.60;99.90;;;;;;4993797;28;20248;-83
2021/03/27 10:05:50;;;;;;;0.00;0.00;;;11.00;99.90;;;;;;4995490;28;20188;-83
2021/03/27 10:08:39;;;;;;;0.10;0.10;;;11.30;99.90;;;;;;5007555;28;20197;-84
2021/03/27 10:11:13;;;;;;;0.00;0.00;;;11.70;99.90;;;;;;5011367;28;20179;-84
2021/03/27 10:13:39;;;;;;;0.10;0.10;;;11.70;99.90;;;;;;4983708;28;20608;-87
2021/03/27 10:16:29;;;;;;;0.10;0.10;;;11.60;99.90;;;;;;5007569;28;20210;-85
2021/03/27 10:19:11;;;;;;;0.20;0.20;;;11.40;99.90;;;;;;4993293;28;20695;-84
2021/03/27 10:21:40;;;;;;;0.00;0.00;;;11.20;99.90;;;;;;5012460;28;20390;-84
2021/03/27 10:24:09;;;;;;;0.40;0.10;;;11.20;99.90;;;;;;5012355;28;20281;-83
2021/03/27 10:27:04;;;;;;;0.13;0.13;;;11.30;99.90;;;;;;4991017;28;20191;-84
2021/03/27 10:29:37;;;;;;;0.20;0.20;;;11.20;99.90;;;;;;5026793;28;20710;-83
2021/03/27 10:32:27;;;;;;;0.20;0.20;;;11.50;99.90;;;;;;5014224;28;20191;-84
2021/03/27 10:35:43;;;;;;;0.53;0.53;;;11.50;99.90;;;;;;5014269;28;20191;-85
2021/03/27 10:38:38;;;;;;;0.10;0.10;;;11.40;99.90;;;;;;4980365;28;20195;-85
2021/03/27 10:41:45;;;;;;;0.13;0.13;;;11.40;99.90;;;;;;4996851;28;20258;-84
2021/03/27 10:44:14;;;;;;;0.00;0.00;;;11.40;99.90;;;;;;4981504;28;20238;-84
2021/03/27 10:46:46;;;;;;;0.00;0.00;;;11.50;99.90;;;;;;5013701;28;20184;-84
2021/03/27 10:49:37;;;;;;;0.30;0.30;;;11.60;99.90;;;;;;5030861;28;20659;-83
2021/03/27 10:52:24;;;;;;;0.07;0.07;;;11.40;99.90;;;;;;5001302;28;20946;-84
2021/03/27 10:55:38;;;;;;;1.10;0.40;;;11.40;99.90;;;;;;5008699;28;20181;-82
2021/03/27 10:58:29;;;;;;;0.00;0.00;;;11.40;99.90;;;;;;5023762;28;20556;-83
2021/03/27 11:01:14;;;;;;;0.00;0.00;;;11.50;99.90;;;;;;5015223;28;20620;-86
2021/03/27 11:03:54;;;;;;;0.20;0.20;;;11.50;99.90;;;;;;4997599;28;20214;-82
2021/03/27 11:06:38;;;;;;;0.10;0.10;;;11.50;99.90;;;;;;5014969;28;20277;-83
2021/03/27 11:09:29;;;;;;;0.00;0.00;;;11.50;99.90;;;;;;5008525;28;20207;-83
2021/03/27 11:12:31;;;;;;;0.10;0.10;;;11.60;99.90;;;;;;5009772;28;20187;-82
2021/03/27 11:15:21;;;;;;;0.10;0.10;;;11.50;99.90;;;;;;5030543;28;20174;-85
2021/03/27 11:17:56;;;;;;;0.00;0.00;;;11.50;99.90;;;;;;5018653;28;20190;-85
2021/03/27 11:20:41;;;;;;;0.73;0.53;;;11.30;99.90;;;;;;5010265;28;20281;-83
2021/03/27 11:23:31;;;;;;;0.10;0.10;;;11.50;99.90;;;;;;5007084;28;20262;-84
2021/03/27 11:26:32;;;;;;;0.10;0.10;;;11.40;99.90;;;;;;5006736;28;20186;-85
2021/03/27 11:29:10;;;;;;;0.10;0.10;;;11.40;99.90;;;;;;5011016;28;20230;-84
2021/03/27 11:31:47;;;;;;;0.27;0.27;;;11.30;99.90;;;;;;4990093;28;20551;-84
2021/03/27 11:34:26;;;;;;;0.43;0.43;;;11.20;99.90;;;;;;5016116;28;20190;-84
2021/03/27 11:37:03;;;;;;;0.03;0.03;;;11.10;99.90;;;;;;4985870;28;20655;-84
2021/03/27 11:39:35;;;;;;;0.10;0.10;;;10.90;99.90;;;;;;5005851;28;20206;-84
2021/03/27 11:42:09;;;;;;;0.30;0.17;;;10.70;99.90;;;;;;5002401;28;20670;-83
2021/03/27 11:45:09;;;;;;;0.10;0.10;;;10.80;99.90;;;;;;5012380;28;20174;-84
2021/03/27 11:47:43;;;;;;;0.00;0.00;;;10.80;99.90;;;;;;5005055;28;20186;-84
2021/03/27 11:50:32;;;;;;;0.00;0.00;;;10.90;99.90;;;;;;5023794;28;20228;-84
2021/03/27 11:53:30;;;;;;;3.53;0.27;;;10.60;99.90;;;;;;5014304;28;20276;-84
2021/03/27 11:56:33;;;;;;;0.00;0.00;;;10.60;99.90;;;;;;5032566;28;20186;-82
2021/03/27 12:02:06;;;;;;;0.17;0.17;;;10.60;99.90;;;;;;4996541;28;20209;-83
2021/03/27 12:04:37;;;;;;;0.00;0.00;;;10.80;99.90;;;;;;5013621;28;20225;-84
2021/03/27 12:07:44;;;;;;;0.10;0.10;;;11.00;99.90;;;;;;4999652;28;20190;-82
2021/03/27 12:10:48;;;;;;;0.00;0.00;;;11.00;99.90;;;;;;4988282;28;20297;-83
2021/03/27 12:13:20;;;;;;;0.10;0.10;;;11.00;99.90;;;;;;5015291;28;20218;-83
2021/03/27 12:15:52;;;;;;;0.57;0.30;;;10.90;99.90;;;;;;4992419;28;20186;-83
2021/03/27 12:18:48;;;;;;;0.00;0.00;;;10.70;99.90;;;;;;5003567;28;20682;-84
2021/03/27 12:21:23;;;;;;;0.10;0.10;;;10.70;99.90;;;;;;5019145;28;21922;-83
2021/03/27 12:23:55;;;;;;;0.10;0.10;;;10.90;99.90;;;;;;5012825;28;20281;-84
2021/03/27 12:26:29;;;;;;;0.10;0.10;;;11.20;99.90;;;;;;4997255;28;20194;-82
2021/03/27 12:29:14;;;;;;;0.23;0.23;;;11.40;99.90;;;;;;5012102;28;20245;-85
2021/03/27 12:31:46;;;;;;;0.10;0.10;;;11.60;99.90;;;;;;5007814;28;20277;-85
2021/03/27 12:34:36;;;;;;;0.30;0.30;;;11.70;99.90;;;;;;5009959;28;20263;-85
2021/03/27 12:37:16;;;;;;;3.67;1.70;;;11.60;99.90;;;;;;4999360;28;20247;-86
2021/03/27 12:39:54;;;;;;;0.00;0.00;;;11.40;99.90;;;;;;5000798;28;20202;-85
2021/03/27 12:42:36;;;;;;;0.00;0.00;;;11.40;99.90;;;;;;4998867;28;20596;-84
2021/03/27 12:45:10;;;;;;;0.10;0.10;;;11.50;99.90;;;;;;5015978;28;20178;-84
2021/03/27 12:47:36;;;;;;;0.00;0.00;;;11.60;99.90;;;;;;5027064;28;20187;-87
2021/03/27 12:50:23;;;;;;;0.10;0.10;;;11.60;99.90;;;;;;5016615;28;20257;-84
2021/03/27 12:53:09;;;;;;;0.03;0.03;;;11.50;99.90;;;;;;4999381;28;20185;-84
2021/03/27 12:55:39;;;;;;;0.93;0.60;;;11.50;99.90;;;;;;4999968;28;20190;-84
2021/03/27 12:58:50;;;;;;;0.63;0.63;;;11.40;99.90;;;;;;5001903;28;20214;-85
2021/03/27 13:01:47;;;;;;;0.00;0.00;;;11.40;99.90;;;;;;4958684;28;20184;-84
2021/03/27 13:04:35;;;;;;;0.10;0.10;;;11.30;99.90;;;;;;5016482;28;20273;-84
2021/03/27 13:07:13;;;;;;;0.63;0.63;;;11.20;99.90;;;;;;5002137;28;20219;-84
2021/03/27 13:10:09;;;;;;;0.10;0.10;;;11.30;99.90;;;;;;5031288;28;20264;-84
2021/03/27 13:12:58;;;;;;;0.10;0.10;;;11.20;99.90;;;;;;4998861;28;20215;-84
2021/03/27 13:15:42;;;;;;;0.37;0.10;;;11.40;99.90;;;;;;5005147;28;20212;-84
2021/03/27 13:18:31;;;;;;;0.10;0.10;;;11.10;99.90;;;;;;4998969;28;20447;-84
2021/03/27 13:21:53;;;;;;;0.10;0.10;;;11.00;99.90;;;;;;4997863;28;20193;-84
2021/03/27 13:24:44;;;;;;;0.00;0.00;;;10.80;99.90;;;;;;4958032;28;20214;-83
2021/03/27 13:27:20;;;;;;;1.27;0.47;;;10.70;99.90;;;;;;4948105;29;20184;-82
2021/03/27 13:29:48;;;;;;;0.10;0.10;;;10.20;99.90;;;;;;4994531;28;20295;-82
2021/03/27 13:32:17;;;;;;;0.33;0.33;;;9.40;99.90;;;;;;5013554;28;20198;-81
2021/03/27 13:34:56;;;;;;;0.20;0.20;;;9.00;99.90;;;;;;4994095;28;20606;-82
2021/03/27 13:37:25;;;;;;;0.13;0.13;;;8.70;99.90;;;;;;5028796;28;20182;-81
2021/03/27 13:39:59;;;;;;;0.10;0.10;;;8.00;99.90;;;;;;5014137;28;20203;-82
2021/03/27 13:42:38;;;;;;;0.10;0.10;;;7.90;99.90;;;;;;5028514;28;20581;-81
2021/03/27 13:45:33;;;;;;;0.13;0.10;;;7.80;99.90;;;;;;4994705;28;20188;-82
2021/03/27 13:48:11;;;;;;;0.20;0.20;;;8.00;99.90;;;;;;4990976;28;20189;-82
2021/03/27 13:50:40;;;;;;;0.10;0.10;;;8.00;99.90;;;;;;4994206;28;20203;-82
2021/03/27 13:53:41;;;;;;;0.10;0.10;;;7.70;99.90;;;;;;5008910;28;20179;-81
2021/03/27 13:56:21;;;;;;;0.10;0.10;;;7.40;99.90;;;;;;5010508;28;20183;-81
2021/03/27 13:59:11;;;;;;;0.07;0.07;;;7.10;99.90;;;;;;5013724;28;20691;-81
2021/03/27 14:01:52;;;;;;;0.00;0.00;;;7.00;99.90;;;;;;4994112;28;20703;-84
2021/03/27 14:04:30;;;;;;;0.10;0.10;;;6.80;99.90;;;;;;5026649;28;20292;-81
2021/03/27 14:07:11;;;;;;;0.10;0.10;;;7.00;99.90;;;;;;5037049;28;20689;-82
2021/03/27 14:09:54;;;;;;;0.00;0.00;;;7.30;99.90;;;;;;4997366;28;20282;-81
2021/03/27 14:13:12;;;;;;;0.00;0.00;;;7.30;99.90;;;;;;4996780;28;20180;-81
2021/03/27 14:15:43;;;;;;;0.00;0.00;;;7.40;99.90;;;;;;4992095;28;20187;-84
2021/03/27 14:18:27;;;;;;;0.10;0.10;;;7.30;99.90;;;;;;4994458;28;20237;-85
2021/03/27 14:21:20;;;;;;;0.00;0.00;;;7.60;99.90;;;;;;5016309;28;20195;-83
2021/03/27 14:24:27;;;;;;;0.27;0.27;;;8.00;99.90;;;;;;5018507;28;20208;-83
2021/03/27 14:27:29;;;;;;;0.10;0.10;;;8.20;99.90;;;;;;5008112;28;20212;-83
2021/03/27 14:30:06;;;;;;;0.03;0.03;;;8.40;99.90;;;;;;4989613;28;20225;-82
2021/03/27 14:33:02;;;;;;;0.10;0.10;;;8.70;99.90;;;;;;5009149;28;20200;-82
2021/03/27 14:36:03;;;;;;;0.10;0.10;;;8.80;99.90;;;;;;5010459;28;20181;-82
2021/03/27 14:39:01;;;;;;;0.00;0.00;;;8.90;99.90;;;;;;5005331;28;20231;-84